createdAt,value
2019-05-29T00:00:03.004Z,12.13
2019-05-29T00:02:31.369Z,9.77
2019-05-29T00:04:59.736Z,11.23
2019-05-29T00:07:28.015Z,10.40
2019-05-29T00:09:56.300Z,9.70
2019-05-29T00:12:24.580Z,11.13
2019-05-29T00:14:53.016Z,10.33
2019-05-29T00:17:21.289Z,12.30
2019-05-29T00:19:49.867Z,10.93
2019-05-29T00:22:18.600Z,9.70
2019-05-29T00:24:47.003Z,9.27
2019-05-29T00:27:15.641Z,10.83
2019-05-29T00:29:44.090Z,8.80
2019-05-29T00:32:13.499Z,10.07
2019-05-29T00:34:44.647Z,8.90
2019-05-29T00:37:12.942Z,8.50
2019-05-29T00:39:41.293Z,8.97
2019-05-29T00:42:09.670Z,10.83
2019-05-29T00:44:38.284Z,9.83
2019-05-29T00:47:07.431Z,8.60
2019-05-29T00:49:35.723Z,8.93
2019-05-29T00:52:04.011Z,9.13
2019-05-29T00:54:32.289Z,9.23
2019-05-29T00:57:00.578Z,8.03
2019-05-29T00:59:28.853Z,9.30
2019-05-29T01:01:57.151Z,9.70
2019-05-29T01:04:25.430Z,9.70
2019-05-29T01:06:53.735Z,9.00
2019-05-29T01:09:22.017Z,8.70
2019-05-29T01:11:50.287Z,8.73
2019-05-29T01:14:19.399Z,9.40
2019-05-29T01:16:47.734Z,9.40
2019-05-29T01:19:25.080Z,8.83
2019-05-29T01:21:54.857Z,8.50
2019-05-29T01:24:23.423Z,8.37
2019-05-29T01:26:51.695Z,9.63
2019-05-29T01:29:21.124Z,10.10
2019-05-29T01:31:49.524Z,7.47
2019-05-29T01:34:17.819Z,7.90
2019-05-29T01:36:46.089Z,9.37
2019-05-29T01:39:15.109Z,9.73
2019-05-29T01:41:43.534Z,8.03
2019-05-29T01:44:11.811Z,7.77
2019-05-29T01:46:40.179Z,9.33
2019-05-29T01:49:08.450Z,7.87
2019-05-29T01:51:36.745Z,7.47
2019-05-29T01:54:05.097Z,7.70
2019-05-29T01:56:33.385Z,7.13
2019-05-29T01:59:01.761Z,7.73
2019-05-29T02:01:30.053Z,8.27
2019-05-29T02:03:58.331Z,6.93
2019-05-29T02:06:26.693Z,8.13
2019-05-29T02:08:54.971Z,8.30
2019-05-29T02:11:23.382Z,8.40
2019-05-29T02:13:51.718Z,8.33
2019-05-29T02:16:20.659Z,8.70
2019-05-29T02:18:49.272Z,8.20
2019-05-29T02:21:18.021Z,7.80
2019-05-29T02:23:46.424Z,7.77
2019-05-29T02:26:14.707Z,8.27
2019-05-29T02:28:43.077Z,7.80
2019-05-29T02:31:11.346Z,7.17
2019-05-29T02:33:39.644Z,8.40
2019-05-29T02:36:07.987Z,7.63
2019-05-29T02:38:36.365Z,7.27
2019-05-29T02:41:04.855Z,6.80
2019-05-29T02:43:33.203Z,7.20
2019-05-29T02:46:01.557Z,9.20
2019-05-29T02:48:31.611Z,8.17
2019-05-29T02:50:59.940Z,7.30
2019-05-29T02:53:28.714Z,7.23
2019-05-29T02:55:57.188Z,8.30
2019-05-29T02:58:27.521Z,7.77
2019-05-29T03:00:55.600Z,7.20
2019-05-29T03:03:26.709Z,8.67
2019-05-29T03:05:54.859Z,7.50
2019-05-29T03:08:24.738Z,8.80
2019-05-29T03:10:53.240Z,7.20
2019-05-29T03:13:22.968Z,6.27
2019-05-29T03:16:08.430Z,7.53
2019-05-29T03:18:21.611Z,6.20
2019-05-29T03:20:50.166Z,7.10
2019-05-29T03:23:18.516Z,5.60
2019-05-29T03:25:46.823Z,7.77
2019-05-29T03:28:15.193Z,6.57
2019-05-29T03:30:46.203Z,7.73
2019-05-29T03:33:13.485Z,7.10
2019-05-29T03:35:47.511Z,7.00
2019-05-29T03:38:11.843Z,6.23
2019-05-29T03:40:40.128Z,6.10
2019-05-29T03:43:08.414Z,6.63
2019-05-29T03:45:37.926Z,6.03
2019-05-29T03:48:06.438Z,7.57
2019-05-29T03:50:35.005Z,6.33
2019-05-29T03:53:03.365Z,6.10
2019-05-29T03:55:32.033Z,6.43
2019-05-29T03:58:01.734Z,6.37
2019-05-29T04:00:37.012Z,7.23
2019-05-29T04:03:00.019Z,5.97
2019-05-29T04:05:29.102Z,5.97
2019-05-29T04:07:57.574Z,5.13
2019-05-29T04:10:32.334Z,5.90
2019-05-29T04:13:01.916Z,5.00
2019-05-29T04:15:33.901Z,5.83
2019-05-29T04:18:04.434Z,5.37
2019-05-29T04:20:38.457Z,5.13
2019-05-29T04:23:07.293Z,5.57
2019-05-29T04:25:40.589Z,4.87
2019-05-29T04:28:07.436Z,5.53
2019-05-29T04:30:36.502Z,4.27
2019-05-29T04:33:05.022Z,5.30
2019-05-29T04:35:34.622Z,5.23
2019-05-29T04:38:03.050Z,4.90
2019-05-29T04:40:32.661Z,5.90
2019-05-29T04:43:01.460Z,4.53
2019-05-29T04:45:30.842Z,4.87
2019-05-29T04:47:59.299Z,4.87
2019-05-29T04:50:29.014Z,4.77
2019-05-29T04:52:57.486Z,5.33
2019-05-29T04:55:25.905Z,5.17
2019-05-29T04:57:54.282Z,4.97
2019-05-29T05:00:22.636Z,5.33
2019-05-29T05:02:51.009Z,5.93
2019-05-29T05:05:19.724Z,4.80
2019-05-29T05:07:48.165Z,5.70
2019-05-29T05:10:19.770Z,5.70
2019-05-29T05:12:48.134Z,4.77
2019-05-29T05:15:16.449Z,4.60
2019-05-29T05:17:44.732Z,7.00
2019-05-29T05:20:13.027Z,5.50
2019-05-29T05:22:41.322Z,4.37
2019-05-29T05:25:09.693Z,4.83
2019-05-29T05:27:38.447Z,3.70
2019-05-29T05:30:09.090Z,5.03
2019-05-29T05:32:38.743Z,3.87
2019-05-29T05:35:07.315Z,4.90
2019-05-29T05:37:36.830Z,4.70
2019-05-29T05:40:06.118Z,4.87
2019-05-29T05:42:34.852Z,4.43
2019-05-29T05:45:03.588Z,4.77
2019-05-29T05:47:44.970Z,5.53
2019-05-29T05:50:02.182Z,7.10
2019-05-29T05:52:31.223Z,4.93
2019-05-29T05:54:59.694Z,4.17
2019-05-29T05:57:28.044Z,4.67
2019-05-29T05:59:56.340Z,3.73
2019-05-29T06:02:24.689Z,4.60
2019-05-29T06:04:52.992Z,4.10
2019-05-29T06:07:21.349Z,6.00
2019-05-29T06:09:49.702Z,5.13
2019-05-29T06:12:18.056Z,5.50
2019-05-29T06:14:46.338Z,4.67
2019-05-29T06:17:14.643Z,3.70
2019-05-29T06:19:43.182Z,3.67
2019-05-29T06:22:11.675Z,3.80
2019-05-29T06:24:40.905Z,3.70
2019-05-29T06:27:09.408Z,5.23
2019-05-29T06:29:37.702Z,4.67
2019-05-29T06:32:06.030Z,3.43
2019-05-29T06:34:35.666Z,3.67
2019-05-29T06:37:04.134Z,3.37
2019-05-29T06:39:33.411Z,3.50
2019-05-29T06:42:01.918Z,2.97
2019-05-29T06:44:30.212Z,3.20
2019-05-29T06:46:58.495Z,3.07
2019-05-29T06:49:26.851Z,3.53
2019-05-29T06:51:55.122Z,3.73
2019-05-29T06:54:23.431Z,2.80
2019-05-29T06:56:51.774Z,2.97
2019-05-29T06:59:20.068Z,3.67
2019-05-29T07:01:48.585Z,3.00
2019-05-29T07:04:16.874Z,3.33
2019-05-29T07:06:45.239Z,3.40
2019-05-29T07:09:13.531Z,3.17
2019-05-29T07:11:41.904Z,4.07
2019-05-29T07:14:10.179Z,4.33
2019-05-29T07:16:45.193Z,2.37
2019-05-29T07:19:25.218Z,2.53
2019-05-29T07:21:38.840Z,2.63
2019-05-29T07:24:07.265Z,3.00
2019-05-29T07:26:36.808Z,2.60
2019-05-29T07:29:08.362Z,2.63
2019-05-29T07:31:35.327Z,2.97
2019-05-29T07:34:03.610Z,3.23
2019-05-29T07:36:31.913Z,3.43
2019-05-29T07:39:03.482Z,2.80
2019-05-29T07:41:30.267Z,2.83
2019-05-29T07:43:58.619Z,3.00
2019-05-29T07:46:26.908Z,3.03
2019-05-29T07:48:55.269Z,2.87
2019-05-29T07:51:23.644Z,2.90
2019-05-29T07:53:51.924Z,2.83
2019-05-29T07:56:22.915Z,2.47
2019-05-29T07:59:01.796Z,2.50
2019-05-29T08:01:20.254Z,3.27
2019-05-29T08:03:49.656Z,2.60
2019-05-29T08:06:18.263Z,2.30
2019-05-29T08:08:47.459Z,2.90
2019-05-29T08:11:15.880Z,2.47
2019-05-29T08:13:44.173Z,2.70
2019-05-29T08:16:12.522Z,2.17
2019-05-29T08:18:41.667Z,2.70
2019-05-29T08:21:10.870Z,2.80
2019-05-29T08:23:40.220Z,2.77
2019-05-29T08:26:08.722Z,2.90
2019-05-29T08:28:37.083Z,2.10
2019-05-29T08:31:05.447Z,2.13
2019-05-29T08:33:33.803Z,2.40
2019-05-29T08:36:02.102Z,2.37
2019-05-29T08:38:30.384Z,2.47
2019-05-29T08:40:58.760Z,2.97
2019-05-29T08:43:27.105Z,2.07
2019-05-29T08:45:55.472Z,3.07
2019-05-29T08:48:23.743Z,2.33
2019-05-29T08:50:52.084Z,2.50
2019-05-29T08:53:20.393Z,2.10
2019-05-29T08:55:49.246Z,2.80
2019-05-29T08:58:17.930Z,2.43
2019-05-29T09:00:50.082Z,2.10
2019-05-29T09:03:16.285Z,2.97
2019-05-29T09:05:44.624Z,2.47
2019-05-29T09:08:13.187Z,2.83
2019-05-29T09:10:43.114Z,2.23
2019-05-29T09:13:11.484Z,2.10
2019-05-29T09:15:39.785Z,2.43
2019-05-29T09:18:08.139Z,1.80
2019-05-29T09:20:57.778Z,2.30
2019-05-29T09:23:06.504Z,1.93
2019-05-29T09:25:34.796Z,2.60
2019-05-29T09:28:14.721Z,2.03
2019-05-29T09:30:44.129Z,1.97
2019-05-29T09:33:15.281Z,1.90
2019-05-29T09:35:42.740Z,2.20
2019-05-29T09:38:11.088Z,1.70
2019-05-29T09:40:39.383Z,2.50
2019-05-29T09:43:07.659Z,1.70
2019-05-29T09:45:36.002Z,2.20
2019-05-29T09:48:04.467Z,2.10
2019-05-29T09:50:48.776Z,1.83
2019-05-29T09:53:04.172Z,1.77
2019-05-29T09:55:32.539Z,1.70
2019-05-29T09:58:00.844Z,1.67
2019-05-29T10:00:29.188Z,2.03
2019-05-29T10:02:57.478Z,1.40
2019-05-29T10:05:25.759Z,2.20
2019-05-29T10:07:55.162Z,1.73
2019-05-29T10:10:24.139Z,2.00
2019-05-29T10:12:53.488Z,1.83
2019-05-29T10:15:22.431Z,1.80
2019-05-29T10:17:51.090Z,1.90
2019-05-29T10:20:19.436Z,1.50
2019-05-29T10:22:47.729Z,2.00
2019-05-29T10:25:16.078Z,2.40
2019-05-29T10:27:44.446Z,1.90
2019-05-29T10:30:13.567Z,2.53
2019-05-29T10:32:42.719Z,2.00
2019-05-29T10:35:12.060Z,2.17
2019-05-29T10:37:40.391Z,1.73
2019-05-29T10:40:08.810Z,1.77
2019-05-29T10:42:37.103Z,2.43
2019-05-29T10:45:08.390Z,2.27
2019-05-29T10:47:36.746Z,2.00
2019-05-29T10:50:07.799Z,1.50
2019-05-29T10:52:36.295Z,2.30
2019-05-29T10:55:06.589Z,1.57
2019-05-29T10:57:34.879Z,1.73
2019-05-29T11:00:05.390Z,1.83
2019-05-29T11:02:33.738Z,1.43
2019-05-29T11:05:02.026Z,2.60
2019-05-29T11:07:30.419Z,2.13
2019-05-29T11:09:58.772Z,2.57
2019-05-29T11:12:27.322Z,1.67
2019-05-29T11:14:56.821Z,1.53
2019-05-29T11:17:25.269Z,2.20
2019-05-29T11:19:53.663Z,1.67
2019-05-29T11:22:26.357Z,1.40
2019-05-29T11:24:52.340Z,1.97
2019-05-29T11:27:20.800Z,2.07
2019-05-29T11:29:50.452Z,1.93
2019-05-29T11:32:18.863Z,1.80
2019-05-29T11:34:47.213Z,3.77
2019-05-29T11:37:15.567Z,1.63
2019-05-29T11:39:43.867Z,1.20
2019-05-29T11:42:26.451Z,1.50
2019-05-29T11:44:42.172Z,1.77
2019-05-29T11:47:10.447Z,1.37
2019-05-29T11:49:38.758Z,2.50
2019-05-29T11:52:23.543Z,1.50
2019-05-29T11:54:37.048Z,1.43
2019-05-29T11:57:05.329Z,2.07
2019-05-29T11:59:33.619Z,1.80
2019-05-29T12:02:03.333Z,2.07
2019-05-29T12:04:31.893Z,1.30
2019-05-29T12:07:01.468Z,1.50
2019-05-29T12:09:33.333Z,1.30
2019-05-29T12:12:00.307Z,2.23
2019-05-29T12:14:28.703Z,2.47
2019-05-29T12:16:58.234Z,1.93
2019-05-29T12:19:26.780Z,1.43
2019-05-29T12:21:56.463Z,1.80
2019-05-29T12:24:25.031Z,1.30
2019-05-29T12:26:54.479Z,1.37
2019-05-29T12:29:22.963Z,1.77
2019-05-29T12:31:52.820Z,1.63
2019-05-29T12:34:21.287Z,1.50
2019-05-29T12:36:49.591Z,1.57
2019-05-29T12:39:17.869Z,3.37
2019-05-29T12:41:46.142Z,2.00
2019-05-29T12:44:14.514Z,1.30
2019-05-29T12:46:42.862Z,1.63
2019-05-29T12:49:13.906Z,1.80
2019-05-29T12:51:42.193Z,2.60
2019-05-29T12:54:10.493Z,1.73
2019-05-29T12:56:38.840Z,1.20
2019-05-29T12:59:07.215Z,1.30
2019-05-29T13:01:35.488Z,1.30
2019-05-29T13:04:04.736Z,2.23
2019-05-29T13:06:33.258Z,2.37
2019-05-29T13:09:02.645Z,1.97
2019-05-29T13:11:31.111Z,1.97
2019-05-29T13:14:00.491Z,1.33
2019-05-29T13:16:28.957Z,1.20
2019-05-29T13:18:57.365Z,2.20
2019-05-29T13:21:25.699Z,1.70
2019-05-29T13:23:58.190Z,1.63
2019-05-29T13:26:24.953Z,1.63
2019-05-29T13:28:53.311Z,1.67
2019-05-29T13:31:21.684Z,1.30
2019-05-29T13:33:49.959Z,1.17
2019-05-29T13:36:18.286Z,1.37
2019-05-29T13:38:46.639Z,1.23
2019-05-29T13:41:14.909Z,1.77
2019-05-29T13:43:43.284Z,1.53
2019-05-29T13:46:11.559Z,1.20
2019-05-29T13:48:39.850Z,1.40
2019-05-29T13:51:08.244Z,1.33
2019-05-29T13:53:36.595Z,1.10
2019-05-29T13:56:06.179Z,1.47
2019-05-29T13:58:34.728Z,2.60
2019-05-29T14:01:04.362Z,1.53
2019-05-29T14:03:32.824Z,1.30
2019-05-29T14:06:02.904Z,1.80
2019-05-29T14:08:31.179Z,1.47
2019-05-29T14:11:00.771Z,1.10
2019-05-29T14:13:29.356Z,1.33
2019-05-29T14:15:57.711Z,1.20
2019-05-29T14:18:25.998Z,1.47
2019-05-29T14:20:54.380Z,1.53
2019-05-29T14:23:22.723Z,1.20
2019-05-29T14:25:51.077Z,1.13
2019-05-29T14:28:19.384Z,1.50
2019-05-29T14:30:47.672Z,1.43
2019-05-29T14:33:16.027Z,1.30
2019-05-29T14:35:44.547Z,1.20
2019-05-29T14:38:15.069Z,1.20
2019-05-29T14:40:42.865Z,1.30
2019-05-29T14:43:13.697Z,1.33
2019-05-29T14:45:41.160Z,1.40
2019-05-29T14:48:10.185Z,1.20
2019-05-29T14:50:38.687Z,1.50
2019-05-29T14:53:07.380Z,1.43
2019-05-29T14:55:36.166Z,1.20
2019-05-29T14:58:05.642Z,1.27
2019-05-29T15:00:34.121Z,1.20
2019-05-29T15:03:03.341Z,1.00
2019-05-29T15:05:31.757Z,1.17
2019-05-29T15:08:00.122Z,1.40
2019-05-29T15:10:28.479Z,1.30
2019-05-29T15:12:58.168Z,2.10
2019-05-29T15:15:26.840Z,1.10
2019-05-29T15:17:55.474Z,1.17
2019-05-29T15:20:23.827Z,1.20
2019-05-29T15:22:52.139Z,0.90
2019-05-29T15:25:24.157Z,0.97
2019-05-29T15:27:50.418Z,1.30
2019-05-29T15:30:23.091Z,1.20
2019-05-29T15:32:48.932Z,2.37
2019-05-29T15:35:19.805Z,3.43
2019-05-29T15:37:47.466Z,3.83
2019-05-29T15:40:17.164Z,2.77
2019-05-29T15:42:45.714Z,3.67
2019-05-29T15:45:14.224Z,2.77
2019-05-29T15:47:42.628Z,2.40
2019-05-29T15:50:11.648Z,2.30
2019-05-29T15:52:40.526Z,1.60
2019-05-29T15:55:21.300Z,2.10
2019-05-29T15:57:38.918Z,2.07
2019-05-29T16:00:11.398Z,1.63
2019-05-29T16:02:39.872Z,2.77
2019-05-29T16:05:08.735Z,3.03
2019-05-29T16:07:37.180Z,3.17
2019-05-29T16:10:08.662Z,5.67
2019-05-29T16:12:37.070Z,5.50
2019-05-29T16:15:07.046Z,5.33
2019-05-29T16:17:35.338Z,6.43
2019-05-29T16:20:10.623Z,4.47
2019-05-29T16:22:39.265Z,2.33
2019-05-29T16:25:07.656Z,5.10
2019-05-29T16:27:36.008Z,4.93
2019-05-29T16:30:08.490Z,3.43
2019-05-29T16:32:36.774Z,4.63
2019-05-29T16:35:06.482Z,2.50
2019-05-29T16:37:34.758Z,3.73
2019-05-29T16:40:03.406Z,2.17
2019-05-29T16:42:31.703Z,2.43
2019-05-29T16:45:00.046Z,3.00
2019-05-29T16:47:28.332Z,3.00
2019-05-29T16:49:56.608Z,1.17
2019-05-29T16:52:24.911Z,1.97
2019-05-29T16:54:53.226Z,1.53
2019-05-29T16:57:21.697Z,1.70
2019-05-29T16:59:50.088Z,2.30
2019-05-29T17:02:19.327Z,1.73
2019-05-29T17:04:48.012Z,1.37
2019-05-29T17:07:16.380Z,1.80
2019-05-29T17:09:45.107Z,1.40
2019-05-29T17:12:14.287Z,1.37
2019-05-29T17:14:42.767Z,1.20
2019-05-29T17:17:11.073Z,1.60
2019-05-29T17:19:39.529Z,0.80
2019-05-29T17:22:07.879Z,1.30
2019-05-29T17:24:36.242Z,1.00
2019-05-29T17:27:04.929Z,1.07
2019-05-29T17:29:33.271Z,1.03
2019-05-29T17:32:01.717Z,0.80
2019-05-29T17:34:30.212Z,1.07
2019-05-29T17:36:58.505Z,1.27
2019-05-29T17:39:26.862Z,1.03
2019-05-29T17:41:55.278Z,1.07
2019-05-29T17:44:23.636Z,1.10
2019-05-29T17:46:52.240Z,3.30
2019-05-29T17:49:24.958Z,1.47
2019-05-29T17:51:50.640Z,1.10
2019-05-29T17:54:19.750Z,1.73
2019-05-29T17:56:48.246Z,1.23
2019-05-29T17:59:16.535Z,1.27
2019-05-29T18:01:46.516Z,1.40
2019-05-29T18:04:15.908Z,1.20
2019-05-29T18:06:44.332Z,1.40
2019-05-29T18:09:12.676Z,1.80
2019-05-29T18:11:41.012Z,1.43
2019-05-29T18:14:09.379Z,1.80
2019-05-29T18:16:37.791Z,3.80
2019-05-29T18:19:06.088Z,1.50
2019-05-29T18:21:34.384Z,1.90
2019-05-29T18:24:02.676Z,2.20
2019-05-29T18:26:46.279Z,3.10
2019-05-29T18:29:00.979Z,2.03
2019-05-29T18:31:29.280Z,2.43
2019-05-29T18:33:57.623Z,3.43
2019-05-29T18:36:27.354Z,1.53
2019-05-29T18:38:55.876Z,2.67
2019-05-29T18:41:24.426Z,3.50
2019-05-29T18:43:52.788Z,2.87
2019-05-29T18:46:21.157Z,2.20
2019-05-29T18:48:49.564Z,2.93
2019-05-29T18:51:17.844Z,1.93
2019-05-29T18:53:46.151Z,1.20
2019-05-29T18:56:14.423Z,3.03
2019-05-29T18:58:42.715Z,1.50
2019-05-29T19:01:11.025Z,1.90
2019-05-29T19:03:40.545Z,2.80
2019-05-29T19:06:09.110Z,2.33
2019-05-29T19:08:37.391Z,2.40
2019-05-29T19:11:05.757Z,1.73
2019-05-29T19:13:34.908Z,1.40
2019-05-29T19:16:03.281Z,2.83
2019-05-29T19:18:32.397Z,1.90
2019-05-29T19:21:00.844Z,2.27
2019-05-29T19:23:29.152Z,2.97
2019-05-29T19:25:57.449Z,1.23
2019-05-29T19:28:26.523Z,1.47
2019-05-29T19:30:54.997Z,1.17
2019-05-29T19:33:23.770Z,1.50
2019-05-29T19:35:52.317Z,3.20
2019-05-29T19:38:20.615Z,1.90
2019-05-29T19:40:48.961Z,1.43
2019-05-29T19:43:17.401Z,1.53
2019-05-29T19:45:45.831Z,2.73
2019-05-29T19:48:14.193Z,1.50
2019-05-29T19:50:42.481Z,1.23
2019-05-29T19:53:10.848Z,1.10
2019-05-29T19:55:39.135Z,2.03
2019-05-29T19:58:07.493Z,1.10
2019-05-29T20:00:36.296Z,1.60
2019-05-29T20:03:05.018Z,1.23
2019-05-29T20:05:33.303Z,1.10
2019-05-29T20:08:01.588Z,1.20
2019-05-29T20:10:31.092Z,1.37
2019-05-29T20:12:59.639Z,1.20
2019-05-29T20:15:27.983Z,1.30
2019-05-29T20:17:56.269Z,1.63
2019-05-29T20:20:24.559Z,1.30
2019-05-29T20:22:53.004Z,1.27
2019-05-29T20:25:21.299Z,2.50
2019-05-29T20:27:49.605Z,1.07
2019-05-29T20:30:18.391Z,2.47
2019-05-29T20:32:47.070Z,1.23
2019-05-29T20:35:16.583Z,1.37
2019-05-29T20:37:45.835Z,1.53
2019-05-29T20:40:14.170Z,1.50
2019-05-29T20:42:42.577Z,1.60
2019-05-29T20:45:10.939Z,1.57
2019-05-29T20:47:40.043Z,1.83
2019-05-29T20:50:10.117Z,2.43
2019-05-29T20:52:39.439Z,2.07
2019-05-29T20:55:08.021Z,1.47
2019-05-29T20:57:36.310Z,1.47
2019-05-29T21:00:10.803Z,2.10
2019-05-29T21:02:40.290Z,1.27
2019-05-29T21:05:08.774Z,1.53
2019-05-29T21:07:37.052Z,1.33
2019-05-29T21:10:05.756Z,1.17
2019-05-29T21:12:35.128Z,1.10
2019-05-29T21:15:04.452Z,1.23
2019-05-29T21:17:33.725Z,1.43
2019-05-29T21:20:02.181Z,1.43
2019-05-29T21:22:30.553Z,2.20
2019-05-29T21:25:05.118Z,1.20
2019-05-29T21:27:28.946Z,1.80
2019-05-29T21:29:57.219Z,1.30
2019-05-29T21:32:25.529Z,1.47
2019-05-29T21:34:53.862Z,1.43
2019-05-29T21:37:22.171Z,1.40
2019-05-29T21:39:50.515Z,1.80
2019-05-29T21:42:18.792Z,1.57
2019-05-29T21:44:47.204Z,1.00
2019-05-29T21:47:15.603Z,1.53
2019-05-29T21:49:45.150Z,1.83
2019-05-29T21:52:13.550Z,1.53
2019-05-29T21:54:41.911Z,0.93
2019-05-29T21:57:10.190Z,1.27
2019-05-29T21:59:39.598Z,1.50
2019-05-29T22:02:08.416Z,2.23
2019-05-29T22:04:38.259Z,2.20
2019-05-29T22:07:06.854Z,2.40
2019-05-29T22:09:35.147Z,1.93
2019-05-29T22:12:03.421Z,2.07
2019-05-29T22:14:31.816Z,2.40
2019-05-29T22:17:01.254Z,1.70
2019-05-29T22:19:29.741Z,1.67
2019-05-29T22:21:59.080Z,1.20
2019-05-29T22:24:27.496Z,2.37
2019-05-29T22:26:55.769Z,1.10
2019-05-29T22:29:24.121Z,1.47
2019-05-29T22:31:53.348Z,0.90
2019-05-29T22:34:21.769Z,1.47
2019-05-29T22:36:51.317Z,1.07
2019-05-29T22:39:19.704Z,2.03
2019-05-29T22:41:48.010Z,1.37
2019-05-29T22:44:16.362Z,1.30
2019-05-29T22:46:44.675Z,5.57
2019-05-29T22:49:13.024Z,1.13
2019-05-29T22:51:41.314Z,2.10
2019-05-29T22:54:09.600Z,1.30
2019-05-29T22:56:37.913Z,1.70
2019-05-29T22:59:06.257Z,3.00
2019-05-29T23:01:34.544Z,3.13
2019-05-29T23:04:02.918Z,1.50
2019-05-29T23:06:31.267Z,1.10
2019-05-29T23:09:00.384Z,1.13
2019-05-29T23:11:28.779Z,1.40
2019-05-29T23:13:58.265Z,1.50
2019-05-29T23:16:26.735Z,1.93
2019-05-29T23:18:55.022Z,1.13
2019-05-29T23:21:23.365Z,2.50
2019-05-29T23:23:51.836Z,1.90
2019-05-29T23:26:20.120Z,1.10
2019-05-29T23:28:48.443Z,1.07
2019-05-29T23:31:16.721Z,1.17
2019-05-29T23:33:45.084Z,2.13
2019-05-29T23:36:13.461Z,1.00
2019-05-29T23:38:41.844Z,0.93
2019-05-29T23:41:10.191Z,2.20
2019-05-29T23:43:38.544Z,1.17
2019-05-29T23:46:06.921Z,2.20
2019-05-29T23:48:35.274Z,0.93
2019-05-29T23:51:03.803Z,1.77
2019-05-29T23:53:32.236Z,1.87
2019-05-29T23:56:00.508Z,1.83
2019-05-29T23:58:29.872Z,1.17
